Brewster, Massachusetts
Current Conditions -  °F | °C
As of 7:52 PM on Tuesday 21 Oct 2014 (Local Time) from KCQX Reporting Station
Broken Clouds Broken Clouds  
Wind Chill: 57°   Ceiling: 7000
Heat Index: 57°   Visibility: 10mi
Dew Point: 55°   Wind: 5mph
Humidity: 93%   Direction: 110°ESE
Pressure: 29.92"   Gusts: NA
Location:  41.76°N, 70.08°W
Report Text: KCQX 212352Z AUTO 11004KT 10SM SCT031 BKN070 14/13 A2992 RMK AO2 SLP131 T01390128 10150 20139 58001
Loading
Personal Weather Stations






























Interactive Weather Map
Tropical Storm Tracking
New forecast layout! Learn more

10-Day Weather Forecast

Advertisements
Track Severe Weather on mobile